sensor_id;sensor_type;location;lat;lon;timestamp;P1;durP1;ratioP1;P2;durP2;ratioP2
7377;SDS011;3730;50.856;12.776;2022-07-15T00:00:41;3.27;;;1.00;;
7377;SDS011;3730;50.856;12.776;2022-07-15T00:03:07;0.97;;;0.70;;
7377;SDS011;3730;50.856;12.776;2022-07-15T00:05:34;1.83;;;0.90;;
7377;SDS011;3730;50.856;12.776;2022-07-15T00:08:00;1.73;;;0.80;;
7377;SDS011;3730;50.856;12.776;2022-07-15T00:10:26;1.40;;;0.70;;
7377;SDS011;3730;50.856;12.776;2022-07-15T00:12:53;5.07;;;0.93;;
7377;SDS011;3730;50.856;12.776;2022-07-15T00:15:21;1.90;;;0.97;;
7377;SDS011;3730;50.856;12.776;2022-07-15T00:17:48;2.00;;;0.87;;
7377;SDS011;3730;50.856;12.776;2022-07-15T00:20:14;1.30;;;0.87;;
7377;SDS011;3730;50.856;12.776;2022-07-15T00:22:41;2.00;;;0.80;;
7377;SDS011;3730;50.856;12.776;2022-07-15T00:25:08;1.33;;;0.90;;
7377;SDS011;3730;50.856;12.776;2022-07-15T00:27:34;15.03;;;1.10;;
7377;SDS011;3730;50.856;12.776;2022-07-15T00:30:01;1.77;;;0.90;;
7377;SDS011;3730;50.856;12.776;2022-07-15T00:32:28;3.67;;;0.90;;
7377;SDS011;3730;50.856;12.776;2022-07-15T00:34:54;1.03;;;0.90;;
7377;SDS011;3730;50.856;12.776;2022-07-15T00:37:20;3.37;;;0.90;;
7377;SDS011;3730;50.856;12.776;2022-07-15T00:39:46;1.10;;;0.80;;
7377;SDS011;3730;50.856;12.776;2022-07-15T00:42:12;2.87;;;1.13;;
7377;SDS011;3730;50.856;12.776;2022-07-15T00:45:01;2.20;;;1.10;;
7377;SDS011;3730;50.856;12.776;2022-07-15T00:47:27;1.67;;;1.07;;
7377;SDS011;3730;50.856;12.776;2022-07-15T00:49:53;3.43;;;0.90;;
7377;SDS011;3730;50.856;12.776;2022-07-15T00:52:19;2.40;;;1.00;;
7377;SDS011;3730;50.856;12.776;2022-07-15T00:54:47;1.20;;;0.80;;
7377;SDS011;3730;50.856;12.776;2022-07-15T00:57:15;3.03;;;1.10;;
7377;SDS011;3730;50.856;12.776;2022-07-15T00:59:42;1.83;;;1.00;;
7377;SDS011;3730;50.856;12.776;2022-07-15T01:02:11;3.00;;;1.07;;
7377;SDS011;3730;50.856;12.776;2022-07-15T01:04:37;2.10;;;0.80;;
7377;SDS011;3730;50.856;12.776;2022-07-15T01:07:04;3.13;;;1.00;;
7377;SDS011;3730;50.856;12.776;2022-07-15T01:09:29;4.60;;;0.90;;
7377;SDS011;3730;50.856;12.776;2022-07-15T01:11:55;2.53;;;0.90;;
7377;SDS011;3730;50.856;12.776;2022-07-15T01:14:21;2.47;;;1.10;;
7377;SDS011;3730;50.856;12.776;2022-07-15T01:16:47;4.97;;;1.00;;
7377;SDS011;3730;50.856;12.776;2022-07-15T01:19:13;1.63;;;0.60;;
7377;SDS011;3730;50.856;12.776;2022-07-15T01:21:38;1.37;;;0.80;;
7377;SDS011;3730;50.856;12.776;2022-07-15T01:24:04;2.17;;;1.20;;
7377;SDS011;3730;50.856;12.776;2022-07-15T01:26:30;5.97;;;1.07;;
7377;SDS011;3730;50.856;12.776;2022-07-15T01:28:56;3.13;;;0.90;;
7377;SDS011;3730;50.856;12.776;2022-07-15T01:31:22;3.80;;;1.10;;
7377;SDS011;3730;50.856;12.776;2022-07-15T01:33:47;2.00;;;0.90;;
7377;SDS011;3730;50.856;12.776;2022-07-15T01:36:13;1.07;;;0.80;;
7377;SDS011;3730;50.856;12.776;2022-07-15T01:38:39;0.90;;;0.70;;
7377;SDS011;3730;50.856;12.776;2022-07-15T01:41:05;1.53;;;0.90;;
7377;SDS011;3730;50.856;12.776;2022-07-15T01:43:30;2.73;;;0.83;;
7377;SDS011;3730;50.856;12.776;2022-07-15T01:45:56;2.40;;;0.90;;
7377;SDS011;3730;50.856;12.776;2022-07-15T01:48:22;1.33;;;0.90;;
7377;SDS011;3730;50.856;12.776;2022-07-15T01:51:06;1.00;;;0.93;;
7377;SDS011;3730;50.856;12.776;2022-07-15T01:53:32;2.40;;;0.80;;
7377;SDS011;3730;50.856;12.776;2022-07-15T01:55:57;2.77;;;1.10;;
7377;SDS011;3730;50.856;12.776;2022-07-15T01:58:23;1.73;;;1.00;;
7377;SDS011;3730;50.856;12.776;2022-07-15T02:00:49;1.67;;;1.00;;
7377;SDS011;3730;50.856;12.776;2022-07-15T02:03:15;1.87;;;0.90;;
7377;SDS011;3730;50.856;12.776;2022-07-15T02:05:41;3.60;;;1.20;;
7377;SDS011;3730;50.856;12.776;2022-07-15T02:08:07;3.33;;;0.90;;
7377;SDS011;3730;50.856;12.776;2022-07-15T02:10:33;1.33;;;0.93;;
7377;SDS011;3730;50.856;12.776;2022-07-15T02:13:05;0.93;;;0.83;;
7377;SDS011;3730;50.856;12.776;2022-07-15T02:15:35;2.10;;;1.13;;
7377;SDS011;3730;50.856;12.776;2022-07-15T02:18:00;2.70;;;1.20;;
7377;SDS011;3730;50.856;12.776;2022-07-15T02:20:26;1.97;;;1.13;;
7377;SDS011;3730;50.856;12.776;2022-07-15T02:22:53;2.07;;;1.17;;
7377;SDS011;3730;50.856;12.776;2022-07-15T02:25:18;1.20;;;1.00;;
7377;SDS011;3730;50.856;12.776;2022-07-15T02:27:44;2.00;;;0.93;;
7377;SDS011;3730;50.856;12.776;2022-07-15T02:30:10;3.37;;;1.17;;
7377;SDS011;3730;50.856;12.776;2022-07-15T02:32:36;3.70;;;1.60;;
7377;SDS011;3730;50.856;12.776;2022-07-15T02:35:03;2.17;;;1.40;;
7377;SDS011;3730;50.856;12.776;2022-07-15T02:37:29;3.47;;;1.17;;
7377;SDS011;3730;50.856;12.776;2022-07-15T02:39:54;4.80;;;1.20;;
7377;SDS011;3730;50.856;12.776;2022-07-15T02:42:21;3.77;;;1.20;;
7377;SDS011;3730;50.856;12.776;2022-07-15T02:44:47;4.67;;;1.20;;
7377;SDS011;3730;50.856;12.776;2022-07-15T02:47:13;3.53;;;1.30;;
7377;SDS011;3730;50.856;12.776;2022-07-15T02:49:38;1.80;;;1.23;;
7377;SDS011;3730;50.856;12.776;2022-07-15T02:52:04;2.63;;;1.37;;
7377;SDS011;3730;50.856;12.776;2022-07-15T02:54:30;2.10;;;1.30;;
7377;SDS011;3730;50.856;12.776;2022-07-15T02:56:55;4.40;;;1.37;;
7377;SDS011;3730;50.856;12.776;2022-07-15T02:59:21;1.57;;;1.03;;
7377;SDS011;3730;50.856;12.776;2022-07-15T03:01:47;3.53;;;1.00;;
7377;SDS011;3730;50.856;12.776;2022-07-15T03:04:13;2.47;;;1.13;;
7377;SDS011;3730;50.856;12.776;2022-07-15T03:06:39;1.77;;;1.10;;
7377;SDS011;3730;50.856;12.776;2022-07-15T03:09:05;2.03;;;1.10;;
7377;SDS011;3730;50.856;12.776;2022-07-15T03:11:31;2.37;;;1.10;;
7377;SDS011;3730;50.856;12.776;2022-07-15T03:13:57;4.80;;;1.40;;
7377;SDS011;3730;50.856;12.776;2022-07-15T03:16:23;3.30;;;1.30;;
7377;SDS011;3730;50.856;12.776;2022-07-15T03:18:49;3.77;;;1.23;;
7377;SDS011;3730;50.856;12.776;2022-07-15T03:21:15;1.30;;;1.20;;
7377;SDS011;3730;50.856;12.776;2022-07-15T03:23:41;4.50;;;1.27;;
7377;SDS011;3730;50.856;12.776;2022-07-15T03:26:08;5.27;;;1.70;;
7377;SDS011;3730;50.856;12.776;2022-07-15T03:28:34;2.33;;;1.30;;
7377;SDS011;3730;50.856;12.776;2022-07-15T03:31:00;2.90;;;1.27;;
7377;SDS011;3730;50.856;12.776;2022-07-15T03:33:26;3.13;;;1.50;;
7377;SDS011;3730;50.856;12.776;2022-07-15T03:35:52;3.00;;;1.27;;
7377;SDS011;3730;50.856;12.776;2022-07-15T03:38:18;2.50;;;1.20;;
7377;SDS011;3730;50.856;12.776;2022-07-15T03:40:44;1.10;;;1.00;;
7377;SDS011;3730;50.856;12.776;2022-07-15T03:43:10;2.07;;;1.23;;
7377;SDS011;3730;50.856;12.776;2022-07-15T03:45:37;3.13;;;1.47;;
7377;SDS011;3730;50.856;12.776;2022-07-15T03:48:03;3.03;;;1.50;;
7377;SDS011;3730;50.856;12.776;2022-07-15T03:50:29;3.03;;;1.40;;
7377;SDS011;3730;50.856;12.776;2022-07-15T03:52:55;1.43;;;1.20;;
7377;SDS011;3730;50.856;12.776;2022-07-15T03:55:21;3.23;;;1.50;;
7377;SDS011;3730;50.856;12.776;2022-07-15T03:57:47;1.10;;;1.00;;
7377;SDS011;3730;50.856;12.776;2022-07-15T04:00:14;2.73;;;1.50;;
7377;SDS011;3730;50.856;12.776;2022-07-15T04:02:40;3.57;;;1.27;;
7377;SDS011;3730;50.856;12.776;2022-07-15T04:05:07;2.40;;;1.40;;
7377;SDS011;3730;50.856;12.776;2022-07-15T04:07:33;3.67;;;1.40;;
7377;SDS011;3730;50.856;12.776;2022-07-15T04:09:59;4.17;;;1.67;;
7377;SDS011;3730;50.856;12.776;2022-07-15T04:12:25;3.80;;;1.90;;
7377;SDS011;3730;50.856;12.776;2022-07-15T04:14:51;2.93;;;1.60;;
7377;SDS011;3730;50.856;12.776;2022-07-15T04:17:17;7.43;;;1.87;;
7377;SDS011;3730;50.856;12.776;2022-07-15T04:19:43;3.33;;;1.60;;
7377;SDS011;3730;50.856;12.776;2022-07-15T04:22:09;3.33;;;1.80;;
7377;SDS011;3730;50.856;12.776;2022-07-15T04:24:35;3.37;;;1.93;;
7377;SDS011;3730;50.856;12.776;2022-07-15T04:27:01;2.83;;;1.70;;
7377;SDS011;3730;50.856;12.776;2022-07-15T04:29:27;3.67;;;1.70;;
7377;SDS011;3730;50.856;12.776;2022-07-15T04:31:54;5.57;;;2.30;;
7377;SDS011;3730;50.856;12.776;2022-07-15T04:34:20;5.73;;;1.87;;
7377;SDS011;3730;50.856;12.776;2022-07-15T04:36:46;4.97;;;2.17;;
7377;SDS011;3730;50.856;12.776;2022-07-15T04:39:12;2.70;;;1.80;;
7377;SDS011;3730;50.856;12.776;2022-07-15T04:41:38;3.03;;;1.80;;
7377;SDS011;3730;50.856;12.776;2022-07-15T04:44:04;3.53;;;2.10;;
7377;SDS011;3730;50.856;12.776;2022-07-15T04:46:30;4.33;;;2.20;;
7377;SDS011;3730;50.856;12.776;2022-07-15T04:48:56;7.63;;;2.90;;
7377;SDS011;3730;50.856;12.776;2022-07-15T04:51:40;5.83;;;2.10;;
7377;SDS011;3730;50.856;12.776;2022-07-15T04:54:06;5.40;;;2.13;;
7377;SDS011;3730;50.856;12.776;2022-07-15T04:56:32;4.47;;;1.90;;
7377;SDS011;3730;50.856;12.776;2022-07-15T04:58:58;3.83;;;2.00;;
7377;SDS011;3730;50.856;12.776;2022-07-15T05:01:24;4.80;;;2.23;;
7377;SDS011;3730;50.856;12.776;2022-07-15T05:03:50;4.40;;;1.93;;
7377;SDS011;3730;50.856;12.776;2022-07-15T05:06:16;6.03;;;2.10;;
7377;SDS011;3730;50.856;12.776;2022-07-15T05:08:43;4.27;;;1.90;;
7377;SDS011;3730;50.856;12.776;2022-07-15T05:11:09;4.50;;;2.30;;
7377;SDS011;3730;50.856;12.776;2022-07-15T05:13:38;5.60;;;2.37;;
7377;SDS011;3730;50.856;12.776;2022-07-15T05:16:04;4.63;;;2.13;;
7377;SDS011;3730;50.856;12.776;2022-07-15T05:18:30;3.73;;;2.03;;
7377;SDS011;3730;50.856;12.776;2022-07-15T05:20:56;5.03;;;2.37;;
7377;SDS011;3730;50.856;12.776;2022-07-15T05:23:22;3.20;;;2.20;;
7377;SDS011;3730;50.856;12.776;2022-07-15T05:25:48;5.20;;;2.70;;
7377;SDS011;3730;50.856;12.776;2022-07-15T05:28:14;4.07;;;2.20;;
7377;SDS011;3730;50.856;12.776;2022-07-15T05:30:41;5.83;;;2.00;;
7377;SDS011;3730;50.856;12.776;2022-07-15T05:33:07;2.97;;;1.97;;
7377;SDS011;3730;50.856;12.776;2022-07-15T05:35:34;3.90;;;2.30;;
7377;SDS011;3730;50.856;12.776;2022-07-15T05:38:00;5.57;;;1.73;;
7377;SDS011;3730;50.856;12.776;2022-07-15T05:40:26;5.70;;;2.13;;
7377;SDS011;3730;50.856;12.776;2022-07-15T05:42:52;6.10;;;2.00;;
7377;SDS011;3730;50.856;12.776;2022-07-15T05:45:18;4.00;;;1.67;;
7377;SDS011;3730;50.856;12.776;2022-07-15T05:47:48;4.60;;;2.40;;
7377;SDS011;3730;50.856;12.776;2022-07-15T05:50:14;4.40;;;2.10;;
7377;SDS011;3730;50.856;12.776;2022-07-15T05:52:40;2.80;;;1.80;;
7377;SDS011;3730;50.856;12.776;2022-07-15T05:55:06;2.50;;;1.73;;
7377;SDS011;3730;50.856;12.776;2022-07-15T05:57:32;3.70;;;2.00;;
7377;SDS011;3730;50.856;12.776;2022-07-15T05:59:58;5.03;;;2.20;;
7377;SDS011;3730;50.856;12.776;2022-07-15T06:02:24;3.63;;;1.80;;
7377;SDS011;3730;50.856;12.776;2022-07-15T06:04:50;5.77;;;2.20;;
7377;SDS011;3730;50.856;12.776;2022-07-15T06:07:16;5.50;;;2.30;;
7377;SDS011;3730;50.856;12.776;2022-07-15T06:09:42;2.47;;;2.00;;
7377;SDS011;3730;50.856;12.776;2022-07-15T06:12:08;4.93;;;2.03;;
7377;SDS011;3730;50.856;12.776;2022-07-15T06:14:35;5.47;;;2.03;;
7377;SDS011;3730;50.856;12.776;2022-07-15T06:17:01;6.23;;;2.17;;
7377;SDS011;3730;50.856;12.776;2022-07-15T06:19:27;5.33;;;2.03;;
7377;SDS011;3730;50.856;12.776;2022-07-15T06:21:53;7.00;;;2.10;;
7377;SDS011;3730;50.856;12.776;2022-07-15T06:24:19;3.73;;;1.83;;
7377;SDS011;3730;50.856;12.776;2022-07-15T06:26:45;2.87;;;1.83;;
7377;SDS011;3730;50.856;12.776;2022-07-15T06:29:11;8.57;;;2.37;;
7377;SDS011;3730;50.856;12.776;2022-07-15T06:31:37;5.97;;;1.90;;
7377;SDS011;3730;50.856;12.776;2022-07-15T06:34:03;5.80;;;2.00;;
7377;SDS011;3730;50.856;12.776;2022-07-15T06:36:29;4.23;;;1.83;;
7377;SDS011;3730;50.856;12.776;2022-07-15T06:38:56;4.00;;;2.00;;
7377;SDS011;3730;50.856;12.776;2022-07-15T06:41:22;2.80;;;1.60;;
7377;SDS011;3730;50.856;12.776;2022-07-15T06:43:48;4.57;;;1.83;;
7377;SDS011;3730;50.856;12.776;2022-07-15T06:46:14;3.83;;;1.50;;
7377;SDS011;3730;50.856;12.776;2022-07-15T06:48:41;4.57;;;1.80;;
7377;SDS011;3730;50.856;12.776;2022-07-15T06:51:07;3.70;;;1.33;;
7377;SDS011;3730;50.856;12.776;2022-07-15T06:53:33;3.40;;;1.50;;
7377;SDS011;3730;50.856;12.776;2022-07-15T06:55:59;6.93;;;1.80;;
7377;SDS011;3730;50.856;12.776;2022-07-15T06:58:25;9.90;;;1.90;;
7377;SDS011;3730;50.856;12.776;2022-07-15T07:00:51;3.10;;;1.57;;
7377;SDS011;3730;50.856;12.776;2022-07-15T07:03:17;2.37;;;1.50;;
7377;SDS011;3730;50.856;12.776;2022-07-15T07:05:43;3.87;;;1.60;;
7377;SDS011;3730;50.856;12.776;2022-07-15T07:08:09;4.33;;;1.50;;
7377;SDS011;3730;50.856;12.776;2022-07-15T07:10:35;2.93;;;1.40;;
7377;SDS011;3730;50.856;12.776;2022-07-15T07:13:00;3.37;;;1.20;;
7377;SDS011;3730;50.856;12.776;2022-07-15T07:15:26;3.83;;;1.37;;
7377;SDS011;3730;50.856;12.776;2022-07-15T07:17:53;2.90;;;1.37;;
7377;SDS011;3730;50.856;12.776;2022-07-15T07:20:19;4.33;;;1.40;;
7377;SDS011;3730;50.856;12.776;2022-07-15T07:22:44;5.57;;;1.70;;
7377;SDS011;3730;50.856;12.776;2022-07-15T07:25:10;2.93;;;1.40;;
7377;SDS011;3730;50.856;12.776;2022-07-15T07:27:36;4.60;;;1.70;;
7377;SDS011;3730;50.856;12.776;2022-07-15T07:30:02;6.77;;;1.50;;
7377;SDS011;3730;50.856;12.776;2022-07-15T07:32:29;6.80;;;1.97;;
7377;SDS011;3730;50.856;12.776;2022-07-15T07:34:55;3.80;;;1.83;;
7377;SDS011;3730;50.856;12.776;2022-07-15T07:37:21;6.00;;;1.77;;
7377;SDS011;3730;50.856;12.776;2022-07-15T07:39:48;4.63;;;1.50;;
7377;SDS011;3730;50.856;12.776;2022-07-15T07:42:14;5.90;;;1.90;;
7377;SDS011;3730;50.856;12.776;2022-07-15T07:44:40;6.93;;;2.63;;
7377;SDS011;3730;50.856;12.776;2022-07-15T07:47:05;5.50;;;1.60;;
7377;SDS011;3730;50.856;12.776;2022-07-15T07:49:31;3.30;;;1.20;;
7377;SDS011;3730;50.856;12.776;2022-07-15T07:51:57;3.43;;;1.30;;
7377;SDS011;3730;50.856;12.776;2022-07-15T07:54:23;5.57;;;1.70;;
7377;SDS011;3730;50.856;12.776;2022-07-15T07:56:50;7.63;;;1.33;;
7377;SDS011;3730;50.856;12.776;2022-07-15T07:59:16;2.93;;;1.57;;
7377;SDS011;3730;50.856;12.776;2022-07-15T08:01:42;3.37;;;1.47;;
7377;SDS011;3730;50.856;12.776;2022-07-15T08:04:08;2.40;;;1.23;;
7377;SDS011;3730;50.856;12.776;2022-07-15T08:06:34;3.50;;;1.40;;
7377;SDS011;3730;50.856;12.776;2022-07-15T08:09:02;2.63;;;1.20;;
7377;SDS011;3730;50.856;12.776;2022-07-15T08:11:28;2.83;;;1.10;;
7377;SDS011;3730;50.856;12.776;2022-07-15T08:13:54;3.67;;;1.40;;
7377;SDS011;3730;50.856;12.776;2022-07-15T08:16:20;1.67;;;1.00;;
7377;SDS011;3730;50.856;12.776;2022-07-15T08:18:46;3.43;;;1.13;;
7377;SDS011;3730;50.856;12.776;2022-07-15T08:21:12;6.20;;;1.87;;
7377;SDS011;3730;50.856;12.776;2022-07-15T08:23:40;2.47;;;1.27;;
7377;SDS011;3730;50.856;12.776;2022-07-15T08:26:06;5.20;;;1.13;;
7377;SDS011;3730;50.856;12.776;2022-07-15T08:28:33;3.47;;;1.40;;
7377;SDS011;3730;50.856;12.776;2022-07-15T08:30:59;1.87;;;1.30;;
7377;SDS011;3730;50.856;12.776;2022-07-15T08:33:25;4.87;;;1.60;;
7377;SDS011;3730;50.856;12.776;2022-07-15T08:35:51;2.37;;;1.10;;
7377;SDS011;3730;50.856;12.776;2022-07-15T08:38:18;3.33;;;1.30;;
7377;SDS011;3730;50.856;12.776;2022-07-15T08:40:44;5.10;;;1.40;;
7377;SDS011;3730;50.856;12.776;2022-07-15T08:43:11;2.53;;;1.10;;
7377;SDS011;3730;50.856;12.776;2022-07-15T08:45:38;7.23;;;1.60;;
7377;SDS011;3730;50.856;12.776;2022-07-15T08:48:05;5.27;;;1.60;;
7377;SDS011;3730;50.856;12.776;2022-07-15T08:50:32;4.30;;;1.57;;
7377;SDS011;3730;50.856;12.776;2022-07-15T08:52:58;3.63;;;1.50;;
7377;SDS011;3730;50.856;12.776;2022-07-15T08:55:24;7.10;;;1.60;;
7377;SDS011;3730;50.856;12.776;2022-07-15T08:57:51;4.57;;;1.63;;
7377;SDS011;3730;50.856;12.776;2022-07-15T09:00:18;3.37;;;1.30;;
7377;SDS011;3730;50.856;12.776;2022-07-15T09:02:44;2.23;;;1.60;;
7377;SDS011;3730;50.856;12.776;2022-07-15T09:08:26;3.60;;;1.40;;
7377;SDS011;3730;50.856;12.776;2022-07-15T09:10:51;2.37;;;1.20;;
7377;SDS011;3730;50.856;12.776;2022-07-15T09:15:50;3.07;;;1.33;;
7377;SDS011;3730;50.856;12.776;2022-07-15T09:18:19;3.13;;;1.50;;
7377;SDS011;3730;50.856;12.776;2022-07-15T09:20:45;3.07;;;1.50;;
7377;SDS011;3730;50.856;12.776;2022-07-15T09:23:12;4.77;;;1.60;;
7377;SDS011;3730;50.856;12.776;2022-07-15T09:25:44;2.40;;;1.40;;
7377;SDS011;3730;50.856;12.776;2022-07-15T09:28:10;6.40;;;1.33;;
7377;SDS011;3730;50.856;12.776;2022-07-15T09:30:39;2.33;;;1.30;;
7377;SDS011;3730;50.856;12.776;2022-07-15T09:33:27;4.63;;;1.70;;
7377;SDS011;3730;50.856;12.776;2022-07-15T09:36:27;3.97;;;1.90;;
7377;SDS011;3730;50.856;12.776;2022-07-15T09:38:54;2.50;;;1.40;;
7377;SDS011;3730;50.856;12.776;2022-07-15T09:43:51;3.00;;;1.10;;
7377;SDS011;3730;50.856;12.776;2022-07-15T09:46:19;6.77;;;1.67;;
7377;SDS011;3730;50.856;12.776;2022-07-15T09:48:46;4.47;;;1.60;;
7377;SDS011;3730;50.856;12.776;2022-07-15T09:51:14;4.87;;;1.70;;
7377;SDS011;3730;50.856;12.776;2022-07-15T09:53:40;3.70;;;1.50;;
7377;SDS011;3730;50.856;12.776;2022-07-15T09:56:08;2.73;;;1.50;;
7377;SDS011;3730;50.856;12.776;2022-07-15T09:58:38;4.23;;;1.50;;
7377;SDS011;3730;50.856;12.776;2022-07-15T10:01:05;3.07;;;1.70;;
7377;SDS011;3730;50.856;12.776;2022-07-15T10:03:32;4.27;;;1.60;;
7377;SDS011;3730;50.856;12.776;2022-07-15T10:05:58;4.37;;;1.57;;
7377;SDS011;3730;50.856;12.776;2022-07-15T10:08:26;1.70;;;1.30;;
7377;SDS011;3730;50.856;12.776;2022-07-15T10:10:54;3.43;;;1.40;;
7377;SDS011;3730;50.856;12.776;2022-07-15T10:15:52;6.43;;;1.60;;
7377;SDS011;3730;50.856;12.776;2022-07-15T10:26:00;5.17;;;1.77;;
7377;SDS011;3730;50.856;12.776;2022-07-15T10:33:39;4.93;;;1.70;;
7377;SDS011;3730;50.856;12.776;2022-07-15T10:36:05;7.33;;;1.70;;
7377;SDS011;3730;50.856;12.776;2022-07-15T10:38:32;2.30;;;1.50;;
7377;SDS011;3730;50.856;12.776;2022-07-15T10:41:06;2.40;;;1.70;;
7377;SDS011;3730;50.856;12.776;2022-07-15T10:43:52;4.10;;;1.77;;
7377;SDS011;3730;50.856;12.776;2022-07-15T10:51:41;4.73;;;1.60;;
7377;SDS011;3730;50.856;12.776;2022-07-15T10:53:59;3.43;;;1.70;;
7377;SDS011;3730;50.856;12.776;2022-07-15T10:56:26;3.27;;;1.70;;
7377;SDS011;3730;50.856;12.776;2022-07-15T10:59:26;4.93;;;2.07;;
7377;SDS011;3730;50.856;12.776;2022-07-15T11:04:19;3.00;;;1.60;;
7377;SDS011;3730;50.856;12.776;2022-07-15T11:09:52;7.43;;;1.70;;
7377;SDS011;3730;50.856;12.776;2022-07-15T11:19:57;2.50;;;1.40;;
7377;SDS011;3730;50.856;12.776;2022-07-15T11:22:24;3.67;;;1.63;;
7377;SDS011;3730;50.856;12.776;2022-07-15T11:24:51;4.30;;;1.90;;
7377;SDS011;3730;50.856;12.776;2022-07-15T11:27:18;3.43;;;1.50;;
7377;SDS011;3730;50.856;12.776;2022-07-15T11:29:57;3.57;;;1.80;;
7377;SDS011;3730;50.856;12.776;2022-07-15T11:32:32;3.50;;;1.80;;
7377;SDS011;3730;50.856;12.776;2022-07-15T11:34:59;2.17;;;1.53;;
7377;SDS011;3730;50.856;12.776;2022-07-15T11:37:31;4.60;;;1.47;;
7377;SDS011;3730;50.856;12.776;2022-07-15T11:40:05;4.40;;;1.80;;
7377;SDS011;3730;50.856;12.776;2022-07-15T11:42:31;1.97;;;1.53;;
7377;SDS011;3730;50.856;12.776;2022-07-15T11:45:30;2.80;;;1.53;;
7377;SDS011;3730;50.856;12.776;2022-07-15T11:47:57;3.47;;;1.30;;
7377;SDS011;3730;50.856;12.776;2022-07-15T11:50:22;2.30;;;1.33;;
7377;SDS011;3730;50.856;12.776;2022-07-15T11:52:49;1.83;;;1.40;;
7377;SDS011;3730;50.856;12.776;2022-07-15T11:55:20;4.00;;;1.73;;
7377;SDS011;3730;50.856;12.776;2022-07-15T11:57:46;4.10;;;1.60;;
7377;SDS011;3730;50.856;12.776;2022-07-15T12:00:13;6.23;;;1.40;;
7377;SDS011;3730;50.856;12.776;2022-07-15T12:02:39;2.23;;;1.40;;
7377;SDS011;3730;50.856;12.776;2022-07-15T12:05:07;3.83;;;1.60;;
7377;SDS011;3730;50.856;12.776;2022-07-15T12:07:39;2.97;;;1.20;;
7377;SDS011;3730;50.856;12.776;2022-07-15T12:10:05;3.90;;;1.70;;
7377;SDS011;3730;50.856;12.776;2022-07-15T12:12:31;2.83;;;1.47;;
7377;SDS011;3730;50.856;12.776;2022-07-15T12:14:57;4.97;;;1.80;;
7377;SDS011;3730;50.856;12.776;2022-07-15T12:17:24;3.87;;;1.80;;
7377;SDS011;3730;50.856;12.776;2022-07-15T12:19:50;2.87;;;1.40;;
7377;SDS011;3730;50.856;12.776;2022-07-15T12:22:18;3.37;;;1.50;;
7377;SDS011;3730;50.856;12.776;2022-07-15T12:24:46;3.03;;;1.50;;
7377;SDS011;3730;50.856;12.776;2022-07-15T12:27:16;2.67;;;1.50;;
7377;SDS011;3730;50.856;12.776;2022-07-15T12:29:42;3.30;;;1.40;;
7377;SDS011;3730;50.856;12.776;2022-07-15T12:32:12;3.30;;;1.40;;
7377;SDS011;3730;50.856;12.776;2022-07-15T12:34:49;2.97;;;1.50;;
7377;SDS011;3730;50.856;12.776;2022-07-15T12:42:29;2.30;;;1.27;;
7377;SDS011;3730;50.856;12.776;2022-07-15T12:45:09;6.67;;;1.60;;
7377;SDS011;3730;50.856;12.776;2022-07-15T12:47:36;2.53;;;1.30;;
7377;SDS011;3730;50.856;12.776;2022-07-15T12:50:03;3.80;;;1.37;;
7377;SDS011;3730;50.856;12.776;2022-07-15T12:54:55;2.37;;;1.50;;
7377;SDS011;3730;50.856;12.776;2022-07-15T12:57:24;3.00;;;1.20;;
7377;SDS011;3730;50.856;12.776;2022-07-15T13:02:20;3.00;;;1.83;;
7377;SDS011;3730;50.856;12.776;2022-07-15T13:04:46;3.00;;;1.33;;
7377;SDS011;3730;50.856;12.776;2022-07-15T13:07:13;2.17;;;1.37;;
7377;SDS011;3730;50.856;12.776;2022-07-15T13:09:39;2.53;;;1.43;;
7377;SDS011;3730;50.856;12.776;2022-07-15T13:12:05;2.90;;;1.40;;
7377;SDS011;3730;50.856;12.776;2022-07-15T13:14:31;2.53;;;1.30;;
7377;SDS011;3730;50.856;12.776;2022-07-15T13:16:57;3.00;;;1.20;;
7377;SDS011;3730;50.856;12.776;2022-07-15T13:19:23;2.63;;;1.30;;
7377;SDS011;3730;50.856;12.776;2022-07-15T13:21:49;5.23;;;1.57;;
7377;SDS011;3730;50.856;12.776;2022-07-15T13:24:15;5.73;;;1.50;;
7377;SDS011;3730;50.856;12.776;2022-07-15T13:26:41;2.60;;;1.73;;
7377;SDS011;3730;50.856;12.776;2022-07-15T13:29:07;1.60;;;1.13;;
7377;SDS011;3730;50.856;12.776;2022-07-15T13:31:33;2.90;;;1.03;;
7377;SDS011;3730;50.856;12.776;2022-07-15T13:33:59;2.63;;;1.20;;
7377;SDS011;3730;50.856;12.776;2022-07-15T13:36:25;1.90;;;1.27;;
7377;SDS011;3730;50.856;12.776;2022-07-15T13:38:52;4.50;;;2.27;;
7377;SDS011;3730;50.856;12.776;2022-07-15T13:41:17;2.70;;;1.30;;
7377;SDS011;3730;50.856;12.776;2022-07-15T13:43:43;5.93;;;1.13;;
7377;SDS011;3730;50.856;12.776;2022-07-15T13:46:09;3.17;;;1.00;;
7377;SDS011;3730;50.856;12.776;2022-07-15T13:48:34;4.80;;;1.50;;
7377;SDS011;3730;50.856;12.776;2022-07-15T13:51:00;2.10;;;1.17;;
7377;SDS011;3730;50.856;12.776;2022-07-15T13:53:44;4.33;;;1.37;;
7377;SDS011;3730;50.856;12.776;2022-07-15T13:56:10;1.57;;;1.20;;
7377;SDS011;3730;50.856;12.776;2022-07-15T13:58:36;3.10;;;1.20;;
7377;SDS011;3730;50.856;12.776;2022-07-15T14:01:02;1.93;;;1.17;;
7377;SDS011;3730;50.856;12.776;2022-07-15T14:03:28;1.90;;;1.00;;
7377;SDS011;3730;50.856;12.776;2022-07-15T14:05:53;2.47;;;1.80;;
7377;SDS011;3730;50.856;12.776;2022-07-15T14:08:19;2.43;;;1.30;;
7377;SDS011;3730;50.856;12.776;2022-07-15T14:10:45;1.97;;;1.20;;
7377;SDS011;3730;50.856;12.776;2022-07-15T14:13:11;2.57;;;1.13;;
7377;SDS011;3730;50.856;12.776;2022-07-15T14:15:36;2.33;;;1.10;;
7377;SDS011;3730;50.856;12.776;2022-07-15T14:18:02;2.47;;;1.07;;
7377;SDS011;3730;50.856;12.776;2022-07-15T14:20:28;2.90;;;1.20;;
7377;SDS011;3730;50.856;12.776;2022-07-15T14:22:54;2.00;;;1.00;;
7377;SDS011;3730;50.856;12.776;2022-07-15T14:25:20;1.60;;;1.10;;
7377;SDS011;3730;50.856;12.776;2022-07-15T14:27:47;5.10;;;1.30;;
7377;SDS011;3730;50.856;12.776;2022-07-15T14:30:13;2.30;;;1.10;;
7377;SDS011;3730;50.856;12.776;2022-07-15T14:32:40;2.33;;;1.10;;
7377;SDS011;3730;50.856;12.776;2022-07-15T14:35:07;3.93;;;1.07;;
7377;SDS011;3730;50.856;12.776;2022-07-15T14:37:33;2.37;;;1.10;;
7377;SDS011;3730;50.856;12.776;2022-07-15T14:39:58;2.83;;;1.00;;
7377;SDS011;3730;50.856;12.776;2022-07-15T14:42:24;5.60;;;1.37;;
7377;SDS011;3730;50.856;12.776;2022-07-15T14:44:50;3.27;;;1.10;;
7377;SDS011;3730;50.856;12.776;2022-07-15T14:47:17;1.57;;;1.00;;
7377;SDS011;3730;50.856;12.776;2022-07-15T14:49:43;1.30;;;1.00;;
7377;SDS011;3730;50.856;12.776;2022-07-15T14:52:09;4.73;;;1.43;;
7377;SDS011;3730;50.856;12.776;2022-07-15T14:54:35;2.90;;;1.20;;
7377;SDS011;3730;50.856;12.776;2022-07-15T14:57:01;1.23;;;0.90;;
7377;SDS011;3730;50.856;12.776;2022-07-15T14:59:27;1.80;;;1.07;;
7377;SDS011;3730;50.856;12.776;2022-07-15T15:01:53;5.90;;;1.23;;
7377;SDS011;3730;50.856;12.776;2022-07-15T15:04:20;3.07;;;1.00;;
7377;SDS011;3730;50.856;12.776;2022-07-15T15:06:46;1.23;;;0.87;;
7377;SDS011;3730;50.856;12.776;2022-07-15T15:09:12;2.80;;;1.37;;
7377;SDS011;3730;50.856;12.776;2022-07-15T15:11:38;3.53;;;1.30;;
7377;SDS011;3730;50.856;12.776;2022-07-15T15:14:04;2.53;;;1.20;;
7377;SDS011;3730;50.856;12.776;2022-07-15T15:16:30;2.93;;;1.27;;
7377;SDS011;3730;50.856;12.776;2022-07-15T15:18:56;7.37;;;1.53;;
7377;SDS011;3730;50.856;12.776;2022-07-15T15:21:23;3.13;;;1.80;;
7377;SDS011;3730;50.856;12.776;2022-07-15T15:23:49;3.10;;;1.10;;
7377;SDS011;3730;50.856;12.776;2022-07-15T15:26:15;3.13;;;1.13;;
7377;SDS011;3730;50.856;12.776;2022-07-15T15:28:54;3.33;;;1.30;;
7377;SDS011;3730;50.856;12.776;2022-07-15T15:31:20;6.30;;;1.20;;
7377;SDS011;3730;50.856;12.776;2022-07-15T15:33:47;3.47;;;1.10;;
7377;SDS011;3730;50.856;12.776;2022-07-15T15:36:14;2.07;;;1.03;;
7377;SDS011;3730;50.856;12.776;2022-07-15T15:38:40;1.50;;;1.00;;
7377;SDS011;3730;50.856;12.776;2022-07-15T15:41:06;4.23;;;1.33;;
7377;SDS011;3730;50.856;12.776;2022-07-15T15:43:32;4.33;;;1.20;;
7377;SDS011;3730;50.856;12.776;2022-07-15T15:45:59;4.23;;;1.20;;
7377;SDS011;3730;50.856;12.776;2022-07-15T15:48:26;1.53;;;1.00;;
7377;SDS011;3730;50.856;12.776;2022-07-15T15:50:52;2.30;;;1.07;;